Time;durP1;ratioP1;P1;durP2;ratioP2;P2;SDS_P1;SDS_P2;PMS_P1;PMS_P2;Temp;Humidity;BMP_temperature;BMP_pressure;BME280_temperature;BME280_humidity;BME280_pressure;Samples;Min_cycle;Max_cycle;Signal;HPM_P1;HPM_P2
2023/03/27 03:02:00;;;;;;;0.08;0.08;;;16.80;52.50;;;;;;5273221;22;45760;-61
2023/03/27 03:04:27;;;;;;;0.10;0.10;;;16.70;52.40;;;;;;4968191;28;45552;-61
2023/03/27 03:06:53;;;;;;;0.40;0.20;;;16.70;52.40;;;;;;4977349;28;45125;-61
2023/03/27 03:09:19;;;;;;;0.10;0.10;;;16.70;52.40;;;;;;4976831;28;47541;-61
2023/03/27 03:11:47;;;;;;;0.17;0.17;;;16.70;52.40;;;;;;4998927;28;45271;-61
2023/03/27 03:14:13;;;;;;;0.13;0.10;;;16.70;52.40;;;;;;5000486;28;45443;-61
2023/03/27 03:16:38;;;;;;;0.15;0.15;;;16.70;52.40;;;;;;4982881;28;45379;-61
2023/03/27 03:19:04;;;;;;;0.10;0.10;;;16.70;52.40;;;;;;4992145;28;46239;-61
2023/03/27 03:21:30;;;;;;;0.10;0.10;;;16.70;52.50;;;;;;5002420;28;45111;-60
2023/03/27 03:23:56;;;;;;;0.30;0.10;;;16.70;52.40;;;;;;4989174;28;45497;-61
2023/03/27 03:26:22;;;;;;;0.15;0.10;;;16.70;52.40;;;;;;4984603;28;45364;-61
2023/03/27 03:28:47;;;;;;;0.43;0.30;;;16.70;52.40;;;;;;4975833;28;47743;-61
2023/03/27 03:31:13;;;;;;;0.20;0.10;;;16.70;52.50;;;;;;5000403;28;45328;-60
2023/03/27 03:33:39;;;;;;;0.10;0.10;;;16.70;52.50;;;;;;5004731;28;46762;-61
2023/03/27 03:36:05;;;;;;;0.10;0.03;;;16.70;52.50;;;;;;4984301;28;45227;-61
2023/03/27 03:38:34;;;;;;;0.20;0.20;;;16.70;52.40;;;;;;5005330;28;46159;-62
2023/03/27 03:40:59;;;;;;;0.20;0.20;;;16.70;52.40;;;;;;5001208;28;45853;-61
2023/03/27 03:43:26;;;;;;;0.32;0.20;;;16.70;52.40;;;;;;4991326;28;45008;-62
2023/03/27 03:45:52;;;;;;;0.20;0.20;;;16.70;52.40;;;;;;4994731;28;45115;-61
2023/03/27 03:48:18;;;;;;;0.22;0.20;;;16.70;52.40;;;;;;4989337;28;46091;-61
2023/03/27 03:50:44;;;;;;;0.20;0.20;;;16.70;52.40;;;;;;4998565;28;45248;-60
2023/03/27 03:53:10;;;;;;;0.20;0.20;;;16.70;52.40;;;;;;4976437;28;45544;-61
2023/03/27 03:55:36;;;;;;;0.10;0.10;;;16.70;52.50;;;;;;4984154;28;44748;-61
2023/03/27 03:58:01;;;;;;;0.30;0.20;;;16.70;52.50;;;;;;4971227;28;45006;-61
2023/03/27 04:00:33;;;;;;;0.10;0.10;;;16.60;52.40;;;;;;4990627;28;45308;-62
2023/03/27 04:02:58;;;;;;;0.20;0.20;;;16.70;52.40;;;;;;4974588;28;45543;-62
2023/03/27 04:05:24;;;;;;;0.22;0.22;;;16.70;52.40;;;;;;5016661;22;45757;-61
2023/03/27 04:07:50;;;;;;;0.13;0.10;;;16.70;52.40;;;;;;4971177;28;45308;-61
2023/03/27 04:10:16;;;;;;;0.10;0.10;;;16.70;52.40;;;;;;4983924;28;45467;-61
2023/03/27 04:12:46;;;;;;;0.50;0.13;;;16.70;52.40;;;;;;4981910;28;45423;-64
2023/03/27 04:15:12;;;;;;;0.13;0.10;;;16.70;52.40;;;;;;4959636;28;45277;-63
2023/03/27 04:17:38;;;;;;;0.40;0.30;;;16.60;52.50;;;;;;4980298;28;46048;-62
2023/03/27 04:20:07;;;;;;;0.20;0.17;;;16.60;52.40;;;;;;4985774;28;44897;-64
2023/03/27 04:22:36;;;;;;;0.20;0.20;;;16.60;52.40;;;;;;4951163;28;46981;-61
2023/03/27 04:25:08;;;;;;;0.40;0.20;;;16.60;52.40;;;;;;4969394;28;45413;-63
2023/03/27 04:27:37;;;;;;;0.20;0.10;;;16.70;52.40;;;;;;4934121;28;48591;-60
2023/03/27 04:30:08;;;;;;;0.20;0.17;;;16.70;52.40;;;;;;4986936;28;45052;-62
2023/03/27 04:32:35;;;;;;;0.32;0.30;;;16.60;52.40;;;;;;4947334;28;45417;-62
2023/03/27 04:35:01;;;;;;;0.77;0.45;;;16.60;52.40;;;;;;4984662;28;45319;-60
2023/03/27 04:37:27;;;;;;;0.38;0.20;;;16.60;52.40;;;;;;4934917;28;48173;-62
2023/03/27 04:39:53;;;;;;;0.40;0.15;;;16.60;52.50;;;;;;4982659;28;45148;-64
2023/03/27 04:42:22;;;;;;;0.38;0.17;;;16.60;52.40;;;;;;4977356;28;45235;-61
2023/03/27 04:44:49;;;;;;;0.22;0.15;;;16.60;52.40;;;;;;4988688;28;44992;-62
2023/03/27 04:47:14;;;;;;;0.20;0.15;;;16.60;52.50;;;;;;4979661;28;45994;-61
2023/03/27 04:49:42;;;;;;;0.20;0.20;;;16.60;52.40;;;;;;4975070;28;46043;-62
2023/03/27 04:52:08;;;;;;;0.13;0.13;;;16.60;52.40;;;;;;4986356;28;45791;-62
2023/03/27 04:54:34;;;;;;;0.40;0.20;;;16.60;52.40;;;;;;4970329;28;45078;-62
2023/03/27 04:57:00;;;;;;;0.13;0.10;;;16.60;52.50;;;;;;4964889;28;45678;-62
2023/03/27 04:59:30;;;;;;;0.22;0.20;;;16.60;52.40;;;;;;4975123;28;45673;-62
2023/03/27 05:01:57;;;;;;;0.50;0.25;;;16.60;52.40;;;;;;4966055;28;45378;-61
2023/03/27 05:04:25;;;;;;;0.30;0.20;;;16.60;52.40;;;;;;4986325;28;45104;-62
2023/03/27 05:06:52;;;;;;;1.05;0.10;;;16.60;52.50;;;;;;4982421;28;46890;-61
2023/03/27 05:09:17;;;;;;;0.70;0.28;;;16.60;52.40;;;;;;4972588;28;45000;-62
2023/03/27 05:11:48;;;;;;;0.20;0.10;;;16.60;52.40;;;;;;4983910;28;44683;-61
2023/03/27 05:14:22;;;;;;;0.57;0.30;;;16.60;52.30;;;;;;4971982;28;45239;-61
2023/03/27 05:16:51;;;;;;;0.47;0.30;;;16.60;52.40;;;;;;4965673;28;46000;-61
2023/03/27 05:19:18;;;;;;;0.55;0.20;;;16.60;52.40;;;;;;4970269;28;45248;-61
2023/03/27 05:21:45;;;;;;;0.80;0.30;;;16.60;52.40;;;;;;4965459;28;45463;-62
2023/03/27 05:24:11;;;;;;;0.20;0.20;;;16.60;52.40;;;;;;4988243;28;45572;-64
2023/03/27 05:26:38;;;;;;;0.40;0.20;;;16.50;52.40;;;;;;4973209;28;47769;-62
2023/03/27 05:29:04;;;;;;;0.40;0.20;;;16.60;52.40;;;;;;4949282;28;45522;-61
2023/03/27 05:31:31;;;;;;;0.20;0.20;;;16.60;52.30;;;;;;4963554;28;45325;-61
2023/03/27 05:33:57;;;;;;;0.40;0.30;;;16.50;52.30;;;;;;4990755;28;45468;-61
2023/03/27 05:36:23;;;;;;;1.02;0.40;;;16.50;52.30;;;;;;4966282;28;46262;-62
2023/03/27 05:38:49;;;;;;;0.20;0.20;;;16.50;52.30;;;;;;4973945;28;45532;-62
2023/03/27 05:41:15;;;;;;;0.30;0.20;;;16.50;52.30;;;;;;4948458;28;45686;-60
2023/03/27 05:43:41;;;;;;;0.30;0.20;;;16.50;52.30;;;;;;4969799;28;45934;-62
2023/03/27 05:46:07;;;;;;;0.80;0.13;;;16.50;52.30;;;;;;4962020;28;45456;-62
2023/03/27 05:48:33;;;;;;;0.10;0.10;;;16.50;52.30;;;;;;4973680;28;45706;-62
2023/03/27 05:50:58;;;;;;;0.25;0.13;;;16.50;52.30;;;;;;4964172;28;45221;-62
2023/03/27 05:53:24;;;;;;;0.40;0.20;;;16.50;52.30;;;;;;4988032;28;45049;-61
2023/03/27 05:55:49;;;;;;;2.60;0.80;;;16.50;52.40;;;;;;5001462;22;45577;-60
2023/03/27 05:58:15;;;;;;;6.50;1.30;;;16.40;49.10;;;;;;4995497;28;45328;-63
2023/03/27 06:00:41;;;;;;;3.97;1.50;;;15.90;46.70;;;;;;4977523;28;45373;-63
2023/03/27 06:03:08;;;;;;;8.95;1.73;;;15.70;48.10;;;;;;4973219;28;45459;-62
2023/03/27 06:05:34;;;;;;;3.83;1.40;;;15.70;48.00;;;;;;4974282;28;45975;-61
2023/03/27 06:07:59;;;;;;;4.88;1.30;;;15.80;48.30;;;;;;4988928;28;45487;-63
2023/03/27 06:10:26;;;;;;;2.88;1.38;;;16.00;48.30;;;;;;4982754;28;45445;-61
2023/03/27 06:13:03;;;;;;;3.08;1.20;;;16.20;47.90;;;;;;4957101;28;45885;-63
2023/03/27 06:15:29;;;;;;;6.63;1.30;;;16.50;47.20;;;;;;4975334;28;45819;-62
2023/03/27 06:17:56;;;;;;;3.03;1.30;;;16.60;47.20;;;;;;4981899;28;45656;-62
2023/03/27 06:20:23;;;;;;;3.35;1.40;;;16.90;46.90;;;;;;4978091;28;45595;-64
2023/03/27 06:22:58;;;;;;;2.70;1.20;;;17.10;46.90;;;;;;4985833;28;45566;-63
2023/03/27 06:25:24;;;;;;;3.05;1.15;;;17.30;46.40;;;;;;4967890;28;46810;-63
2023/03/27 06:27:50;;;;;;;3.15;1.25;;;17.40;46.60;;;;;;4979955;28;45396;-63
2023/03/27 06:30:20;;;;;;;2.78;0.85;;;17.60;46.50;;;;;;4977365;28;45619;-61
2023/03/27 06:32:53;;;;;;;2.13;1.05;;;17.70;46.20;;;;;;4954881;28;44762;-63
2023/03/27 06:35:19;;;;;;;4.25;1.30;;;17.90;46.10;;;;;;4966833;28;46217;-64
2023/03/27 06:37:47;;;;;;;3.17;1.27;;;18.10;46.20;;;;;;4971839;28;45352;-63
2023/03/27 06:40:21;;;;;;;2.95;0.98;;;18.20;46.70;;;;;;4981585;28;45461;-63
2023/03/27 06:42:54;;;;;;;3.95;1.02;;;18.40;46.10;;;;;;4987112;28;45232;-63
2023/03/27 06:45:21;;;;;;;3.60;1.00;;;18.60;45.70;;;;;;4978332;28;46003;-62
2023/03/27 06:47:58;;;;;;;2.85;0.80;;;18.70;45.90;;;;;;4983551;28;45189;-63
2023/03/27 06:50:25;;;;;;;2.10;0.65;;;18.80;45.70;;;;;;4980431;28;45315;-63
2023/03/27 06:52:50;;;;;;;3.65;0.82;;;18.90;46.20;;;;;;4985732;28;45376;-63
2023/03/27 06:55:17;;;;;;;2.90;0.75;;;19.00;46.00;;;;;;4979700;28;45877;-63
2023/03/27 06:58:02;;;;;;;2.75;0.80;;;19.10;46.10;;;;;;4984046;28;44979;-63
2023/03/27 07:00:29;;;;;;;2.95;0.80;;;19.30;45.60;;;;;;4956420;28;45466;-64
2023/03/27 07:02:56;;;;;;;1.60;0.70;;;19.40;46.00;;;;;;4984719;28;45611;-62
2023/03/27 07:05:22;;;;;;;2.75;0.73;;;19.50;46.20;;;;;;4959823;28;46315;-62
2023/03/27 07:07:48;;;;;;;1.55;0.65;;;19.60;45.90;;;;;;4963688;28;45183;-62
2023/03/27 07:10:14;;;;;;;2.75;1.05;;;19.70;45.90;;;;;;4979957;28;44776;-61
2023/03/27 07:12:43;;;;;;;1.65;0.80;;;19.90;45.90;;;;;;4965806;28;46374;-60
2023/03/27 07:15:09;;;;;;;2.22;0.88;;;20.00;45.80;;;;;;4950149;28;45977;-62
2023/03/27 07:17:35;;;;;;;1.40;0.60;;;20.10;45.80;;;;;;4933732;28;45324;-62
2023/03/27 07:20:02;;;;;;;3.25;0.75;;;20.30;45.70;;;;;;4966214;28;45701;-61
2023/03/27 07:22:28;;;;;;;1.35;0.57;;;20.30;45.50;;;;;;4976501;28;45840;-64
2023/03/27 07:24:54;;;;;;;3.75;0.80;;;20.50;45.60;;;;;;4985096;28;45464;-63
2023/03/27 07:27:20;;;;;;;3.22;1.00;;;20.60;45.50;;;;;;4962797;28;45364;-62
2023/03/27 07:29:45;;;;;;;2.33;0.80;;;20.70;45.30;;;;;;4977198;28;46017;-62
2023/03/27 07:32:11;;;;;;;1.80;0.60;;;20.90;45.10;;;;;;4954481;28;45537;-63
2023/03/27 07:34:37;;;;;;;;;;;20.90;45.00;;;;;;4968313;28;45774;-62
2023/03/27 07:37:02;;;;;;;2.40;0.70;;;20.90;44.20;;;;;;4960767;28;45633;-68
2023/03/27 07:39:28;;;;;;;2.72;0.57;;;20.90;45.30;;;;;;4972235;28;45051;-63
2023/03/27 07:41:54;;;;;;;3.67;0.70;;;21.00;45.30;;;;;;4963794;28;45518;-62
2023/03/27 07:44:19;;;;;;;1.17;0.60;;;21.10;45.30;;;;;;4973623;28;45911;-63
2023/03/27 07:46:45;;;;;;;0.93;0.40;;;21.10;45.10;;;;;;4957052;28;45007;-60
2023/03/27 07:49:12;;;;;;;1.33;0.70;;;21.20;45.30;;;;;;4986410;28;45399;-60
2023/03/27 07:51:38;;;;;;;2.75;0.57;;;21.30;45.20;;;;;;4967276;28;45220;-63
2023/03/27 07:54:04;;;;;;;;;;;21.40;45.20;;;;;;4966695;28;46298;-61
2023/03/27 07:56:33;;;;;;;0.52;0.40;;;21.50;44.20;;;;;;4967443;28;45198;-62
2023/03/27 07:58:59;;;;;;;1.52;0.60;;;21.60;45.10;;;;;;4973683;28;46099;-62
2023/03/27 08:01:28;;;;;;;2.20;0.63;;;21.70;44.90;;;;;;4976602;28;46132;-61
2023/03/27 08:03:53;;;;;;;2.65;0.70;;;21.80;44.80;;;;;;4963924;28;46871;-61
2023/03/27 08:06:19;;;;;;;1.75;0.80;;;21.90;44.70;;;;;;4977557;28;45283;-62
2023/03/27 08:08:44;;;;;;;1.80;0.70;;;22.00;44.50;;;;;;4984333;28;45780;-61
2023/03/27 08:11:10;;;;;;;2.83;0.60;;;22.10;44.40;;;;;;4978274;28;45618;-62
2023/03/27 08:13:35;;;;;;;2.30;0.60;;;22.20;44.30;;;;;;4984633;28;45328;-62
2023/03/27 08:16:20;;;;;;;2.53;0.93;;;22.20;44.30;;;;;;4978587;28;45309;-62
2023/03/27 08:18:46;;;;;;;3.47;0.85;;;22.30;44.20;;;;;;4984946;28;45463;-62
2023/03/27 08:21:11;;;;;;;4.22;0.50;;;22.30;44.20;;;;;;4985400;28;45739;-58
2023/03/27 08:23:38;;;;;;;2.53;0.82;;;22.40;44.10;;;;;;4971828;28;45262;-61
2023/03/27 08:26:04;;;;;;;1.98;0.55;;;22.50;44.10;;;;;;4985396;28;45221;-62
2023/03/27 08:28:30;;;;;;;2.83;0.80;;;22.60;44.10;;;;;;4986970;28;46327;-60
2023/03/27 08:30:57;;;;;;;4.05;0.65;;;22.60;44.00;;;;;;4981817;28;45996;-62
2023/03/27 08:33:23;;;;;;;2.40;0.68;;;22.60;43.90;;;;;;4984214;28;46303;-61
2023/03/27 08:35:49;;;;;;;2.40;0.60;;;22.70;44.20;;;;;;4981943;28;45419;-62
2023/03/27 08:38:15;;;;;;;1.83;0.63;;;22.80;43.90;;;;;;4985071;28;45256;-61
2023/03/27 08:40:48;;;;;;;1.45;0.60;;;22.80;43.90;;;;;;4986589;28;46284;-61
2023/03/27 08:43:34;;;;;;;;;;;22.90;43.70;;;;;;4985074;28;45618;-61
2023/03/27 08:46:11;;;;;;;0.80;0.55;;;22.90;43.00;;;;;;4980250;28;45196;-63
2023/03/27 08:48:42;;;;;;;1.40;0.50;;;23.00;43.50;;;;;;4987301;28;45078;-62
2023/03/27 08:51:17;;;;;;;3.47;0.70;;;23.00;43.70;;;;;;4968282;28;44983;-61
2023/03/27 08:54:08;;;;;;;1.85;0.55;;;23.10;43.40;;;;;;4986924;28;46265;-61
2023/03/27 08:56:33;;;;;;;5.40;0.77;;;23.10;43.20;;;;;;4979617;28;45563;-63
2023/03/27 08:59:00;;;;;;;1.83;0.50;;;23.20;43.70;;;;;;4987944;28;45002;-62
2023/03/27 09:01:28;;;;;;;2.90;0.70;;;23.20;43.60;;;;;;4965172;28;45710;-63
2023/03/27 09:04:02;;;;;;;1.38;0.47;;;23.20;43.60;;;;;;4985372;28;46684;-62
2023/03/27 09:06:55;;;;;;;0.85;0.52;;;23.30;43.50;;;;;;4982172;28;45276;-61
2023/03/27 09:10:02;;;;;;;2.80;0.55;;;23.40;43.50;;;;;;4983191;28;45067;-64
2023/03/27 09:12:51;;;;;;;1.00;0.55;;;23.40;42.90;;;;;;4983623;28;45148;-62
2023/03/27 09:15:35;;;;;;;0.65;0.50;;;23.50;42.90;;;;;;4980605;28;45477;-62
2023/03/27 09:18:22;;;;;;;1.85;0.55;;;23.50;43.00;;;;;;4984457;28;45853;-63
2023/03/27 09:20:52;;;;;;;2.40;0.52;;;23.60;43.40;;;;;;4967650;28;44982;-63
2023/03/27 09:23:21;;;;;;;0.60;0.38;;;23.60;43.20;;;;;;4974129;28;44994;-61
2023/03/27 09:25:50;;;;;;;1.35;0.50;;;23.70;43.30;;;;;;4962488;28;46852;-61
2023/03/27 09:28:38;;;;;;;1.15;0.40;;;23.70;43.20;;;;;;4975077;28;45345;-62
2023/03/27 09:31:26;;;;;;;1.30;0.47;;;23.80;42.70;;;;;;4976939;28;45721;-60
2023/03/27 09:33:52;;;;;;;1.55;0.50;;;23.80;43.30;;;;;;4965656;28;45098;-62
2023/03/27 09:36:17;;;;;;;2.65;0.63;;;23.90;43.20;;;;;;4981466;28;46059;-62
2023/03/27 09:38:49;;;;;;;1.02;0.45;;;23.80;43.20;;;;;;4986663;28;44907;-62
2023/03/27 09:41:21;;;;;;;2.40;0.80;;;23.90;43.10;;;;;;4980757;28;45548;-63
2023/03/27 09:44:13;;;;;;;0.82;0.50;;;24.00;43.10;;;;;;4986976;28;45570;-64
2023/03/27 09:46:42;;;;;;;1.02;0.35;;;24.00;42.80;;;;;;4975903;28;45303;-63
2023/03/27 09:49:18;;;;;;;0.95;0.40;;;24.00;43.00;;;;;;4969139;28;45184;-62
2023/03/27 09:51:45;;;;;;;1.38;0.50;;;24.10;42.80;;;;;;4980617;28;45341;-62
2023/03/27 09:54:15;;;;;;;1.50;0.60;;;24.10;43.00;;;;;;4985740;28;45836;-63
2023/03/27 09:56:42;;;;;;;1.83;0.55;;;24.20;43.00;;;;;;4985429;28;46283;-61
2023/03/27 09:59:27;;;;;;;3.25;0.60;;;24.20;42.90;;;;;;4984509;28;45255;-63
2023/03/27 10:01:57;;;;;;;2.03;0.50;;;24.20;42.50;;;;;;4976015;28;45021;-63
2023/03/27 10:04:24;;;;;;;1.42;0.40;;;24.30;42.80;;;;;;4983987;28;44784;-63
2023/03/27 10:07:00;;;;;;;1.83;0.40;;;24.30;42.90;;;;;;4979950;28;45985;-63
2023/03/27 10:09:28;;;;;;;1.40;0.52;;;24.40;42.70;;;;;;4971066;28;45704;-63
2023/03/27 10:12:14;;;;;;;1.90;0.55;;;24.30;42.90;;;;;;4976745;28;45620;-63
2023/03/27 10:14:47;;;;;;;2.08;0.52;;;24.40;42.60;;;;;;4986646;28;45378;-63
2023/03/27 10:17:28;;;;;;;1.83;0.30;;;24.40;42.80;;;;;;4981634;28;45876;-63
2023/03/27 10:19:58;;;;;;;1.63;0.57;;;24.50;42.50;;;;;;4959926;28;44955;-62
2023/03/27 10:22:32;;;;;;;2.45;0.50;;;24.50;42.60;;;;;;4981983;28;45538;-62
2023/03/27 10:24:59;;;;;;;0.73;0.28;;;24.50;42.40;;;;;;4974642;28;45465;-61
2023/03/27 10:27:27;;;;;;;1.30;0.40;;;24.50;42.60;;;;;;4966158;28;45942;-62
2023/03/27 10:29:52;;;;;;;1.67;0.50;;;24.60;42.50;;;;;;4982894;28;45228;-62
2023/03/27 10:32:18;;;;;;;2.53;0.60;;;24.50;42.50;;;;;;4972951;28;45578;-59
2023/03/27 10:34:57;;;;;;;0.70;0.30;;;24.60;42.50;;;;;;4968681;28;45444;-61
2023/03/27 10:37:28;;;;;;;1.23;0.45;;;24.60;42.10;;;;;;4965787;28;45414;-62
2023/03/27 10:39:54;;;;;;;0.90;0.20;;;24.60;42.30;;;;;;4972393;28;45240;-62
2023/03/27 10:42:21;;;;;;;0.20;0.20;;;24.60;42.60;;;;;;4979324;28;45354;-62
2023/03/27 10:44:47;;;;;;;1.52;0.70;;;24.50;42.60;;;;;;4987356;28;45619;-62
2023/03/27 10:47:18;;;;;;;1.17;0.40;;;24.50;42.60;;;;;;4962926;28;45435;-63
2023/03/27 10:49:47;;;;;;;0.93;0.47;;;24.50;42.50;;;;;;4971390;28;45292;-63
2023/03/27 10:52:22;;;;;;;1.17;0.32;;;24.50;42.60;;;;;;4962468;28;46305;-61
2023/03/27 10:55:00;;;;;;;0.30;0.30;;;24.50;42.40;;;;;;4952564;28;44912;-63
2023/03/27 10:57:26;;;;;;;2.40;0.52;;;24.50;42.10;;;;;;4981668;28;46005;-62
2023/03/27 10:59:55;;;;;;;2.70;0.38;;;24.60;42.60;;;;;;4979547;28;45312;-61
2023/03/27 11:02:52;;;;;;;0.63;0.32;;;24.60;42.50;;;;;;4972435;28;45496;-61
2023/03/27 11:05:24;;;;;;;2.80;0.40;;;24.60;42.20;;;;;;4972782;28;45370;-61
2023/03/27 11:08:05;;;;;;;1.42;0.38;;;24.70;42.30;;;;;;4959349;28;46198;-59
2023/03/27 11:10:34;;;;;;;0.82;0.35;;;24.70;42.10;;;;;;4981591;28;44955;-61
2023/03/27 11:13:13;;;;;;;1.38;0.38;;;24.70;42.40;;;;;;4984150;28;45008;-60
2023/03/27 11:15:42;;;;;;;1.02;0.43;;;24.80;42.10;;;;;;4926949;28;45760;-60
2023/03/27 11:18:15;;;;;;;1.55;0.50;;;24.80;42.50;;;;;;4969933;28;46844;-62
2023/03/27 11:21:01;;;;;;;0.45;0.40;;;24.80;42.30;;;;;;4956924;28;46271;-61
2023/03/27 11:23:47;;;;;;;1.02;0.50;;;24.80;41.90;;;;;;4971447;28;45115;-60
2023/03/27 11:26:15;;;;;;;0.98;0.32;;;24.90;42.20;;;;;;4964469;28;45275;-62
2023/03/27 11:29:00;;;;;;;0.50;0.40;;;24.80;42.40;;;;;;4981199;28;46250;-63
2023/03/27 11:31:48;;;;;;;0.40;0.30;;;24.80;42.10;;;;;;4973966;28;45702;-62
2023/03/27 11:34:20;;;;;;;0.45;0.30;;;24.70;42.30;;;;;;4969171;28;45503;-63
2023/03/27 11:36:50;;;;;;;1.77;0.43;;;24.70;42.50;;;;;;4969630;28;45246;-62
2023/03/27 11:39:37;;;;;;;0.90;0.30;;;24.70;43.20;;;;;;4954003;28;46175;-62
2023/03/27 11:42:14;;;;;;;0.80;0.40;;;24.80;42.30;;;;;;4979802;28;45552;-61
2023/03/27 11:44:40;;;;;;;2.80;0.40;;;24.80;42.40;;;;;;4984256;28;44935;-62
2023/03/27 11:47:23;;;;;;;1.05;0.40;;;24.80;42.80;;;;;;4959254;28;45968;-60
2023/03/27 11:50:17;;;;;;;0.30;0.28;;;24.90;42.40;;;;;;4971991;28;46367;-61
2023/03/27 11:53:01;;;;;;;0.90;0.40;;;24.90;42.10;;;;;;4982982;28;45384;-61
2023/03/27 11:55:48;;;;;;;1.45;0.40;;;25.00;42.40;;;;;;4977365;28;46144;-64
2023/03/27 11:59:04;;;;;;;0.38;0.20;;;25.00;42.10;;;;;;4984857;28;45544;-61
2023/03/27 12:01:37;;;;;;;1.60;0.38;;;25.00;42.00;;;;;;4879446;28;47063;-61
2023/03/27 12:04:09;;;;;;;1.90;0.32;;;24.90;42.40;;;;;;4893346;28;45685;-61
2023/03/27 12:06:58;;;;;;;0.35;0.20;;;24.80;42.50;;;;;;4947148;28;45010;-61
2023/03/27 12:09:39;;;;;;;2.85;0.30;;;24.80;42.60;;;;;;4965550;28;45525;-61
2023/03/27 12:12:12;;;;;;;0.93;0.32;;;24.80;42.50;;;;;;4948399;28;46369;-62
2023/03/27 12:15:05;;;;;;;1.17;0.50;;;24.80;42.70;;;;;;4970000;28;45208;-62
2023/03/27 12:17:39;;;;;;;0.73;0.40;;;24.90;42.30;;;;;;4965688;28;45393;-61
2023/03/27 12:20:36;;;;;;;3.75;0.50;;;24.90;42.50;;;;;;4980371;28;45554;-63
2023/03/27 12:23:29;;;;;;;0.70;0.22;;;25.00;42.20;;;;;;4970901;28;46424;-60
2023/03/27 12:26:02;;;;;;;0.83;0.30;;;25.00;42.20;;;;;;4978386;28;45560;-62
2023/03/27 12:28:58;;;;;;;2.88;0.40;;;25.10;42.50;;;;;;4967721;28;45458;-63
2023/03/27 12:31:33;;;;;;;2.15;0.30;;;25.10;42.20;;;;;;4972227;28;44728;-62
2023/03/27 12:34:21;;;;;;;0.70;0.32;;;25.10;42.40;;;;;;4988401;28;45392;-61
2023/03/27 12:36:47;;;;;;;0.98;0.20;;;25.10;42.40;;;;;;4967193;28;45653;-61
2023/03/27 12:39:21;;;;;;;0.68;0.32;;;25.10;42.50;;;;;;4966816;28;46005;-61
2023/03/27 12:41:46;;;;;;;1.02;0.38;;;25.00;42.40;;;;;;4962680;28;46345;-62
2023/03/27 12:44:13;;;;;;;0.82;0.20;;;24.90;42.80;;;;;;4985298;28;45348;-62
2023/03/27 12:46:40;;;;;;;1.50;0.40;;;24.90;42.80;;;;;;4958869;28;44982;-62
2023/03/27 12:49:06;;;;;;;0.32;0.20;;;24.90;42.80;;;;;;4987529;28;45348;-61
2023/03/27 12:51:37;;;;;;;0.40;0.28;;;24.90;42.80;;;;;;4979818;28;45469;-62
2023/03/27 12:54:25;;;;;;;0.75;0.35;;;25.00;42.80;;;;;;4987655;28;46733;-62
2023/03/27 12:57:14;;;;;;;1.10;0.25;;;25.00;42.50;;;;;;4981970;28;44693;-62
2023/03/27 12:59:57;;;;;;;1.05;0.20;;;25.00;42.40;;;;;;4978285;28;45648;-62
2023/03/27 13:02:35;;;;;;;0.47;0.35;;;25.10;42.50;;;;;;4973304;28;45449;-65
2023/03/27 13:05:05;;;;;;;0.60;0.40;;;25.10;42.50;;;;;;4971155;28;46711;-62
2023/03/27 13:07:49;;;;;;;0.35;0.20;;;25.10;42.50;;;;;;4973442;28;45326;-62
2023/03/27 13:10:48;;;;;;;0.88;0.40;;;25.10;42.50;;;;;;4988113;28;45236;-62
2023/03/27 13:13:33;;;;;;;0.52;0.45;;;25.20;42.40;;;;;;4975367;28;45584;-61
2023/03/27 13:16:21;;;;;;;1.05;0.40;;;25.20;42.40;;;;;;4970279;28;47028;-62
2023/03/27 13:19:05;;;;;;;0.50;0.17;;;25.20;42.50;;;;;;4984292;28;45058;-63
2023/03/27 13:22:06;;;;;;;2.70;0.30;;;25.20;42.60;;;;;;4988400;28;45483;-61
2023/03/27 13:25:03;;;;;;;0.77;0.40;;;25.10;42.40;;;;;;4991706;28;45052;-61
2023/03/27 13:27:59;;;;;;;0.80;0.30;;;25.00;42.80;;;;;;4956360;28;46958;-60
2023/03/27 13:30:57;;;;;;;0.60;0.25;;;25.00;42.80;;;;;;4983958;28;45440;-60
2023/03/27 13:33:25;;;;;;;0.40;0.20;;;25.00;42.70;;;;;;4967700;28;45462;-59
2023/03/27 13:35:56;;;;;;;0.28;0.22;;;25.00;43.00;;;;;;4989503;28;45841;-61
2023/03/27 13:38:53;;;;;;;0.57;0.30;;;25.10;42.90;;;;;;4992121;28;45394;-61
2023/03/27 13:41:43;;;;;;;1.15;0.40;;;25.10;42.70;;;;;;4987539;28;45370;-60
2023/03/27 13:44:10;;;;;;;1.13;0.40;;;25.10;42.70;;;;;;4991041;28;45291;-62
2023/03/27 13:46:35;;;;;;;0.77;0.20;;;25.20;42.90;;;;;;4977561;28;45456;-60
2023/03/27 13:49:01;;;;;;;0.40;0.30;;;25.20;42.90;;;;;;4971226;28;47036;-60
2023/03/27 13:51:51;;;;;;;0.68;0.20;;;25.20;42.90;;;;;;4979872;28;45285;-60
2023/03/27 13:54:35;;;;;;;0.35;0.10;;;25.10;42.90;;;;;;4992753;28;45284;-61
2023/03/27 13:57:13;;;;;;;0.88;0.40;;;25.00;42.90;;;;;;4982623;28;45377;-61
2023/03/27 14:00:09;;;;;;;0.90;0.20;;;25.00;43.30;;;;;;4962749;28;46011;-58
2023/03/27 14:02:38;;;;;;;0.73;0.20;;;25.00;43.10;;;;;;4971498;28;45645;-61
2023/03/27 14:05:14;;;;;;;0.65;0.20;;;25.00;43.20;;;;;;4984179;28;45413;-62
2023/03/27 14:08:33;;;;;;;0.20;0.13;;;25.00;43.10;;;;;;4985953;28;45864;-62
2023/03/27 14:11:18;;;;;;;0.35;0.10;;;25.10;42.90;;;;;;4927898;28;46257;-59
2023/03/27 14:14:02;;;;;;;1.05;0.30;;;25.20;43.10;;;;;;4973659;28;45480;-61
2023/03/27 14:16:36;;;;;;;0.60;0.30;;;25.20;42.90;;;;;;4978533;28;45604;-61
2023/03/27 14:19:36;;;;;;;0.35;0.25;;;25.20;43.00;;;;;;4990428;28;45562;-61
2023/03/27 14:22:04;;;;;;;0.30;0.17;;;25.20;43.50;;;;;;4980190;28;45373;-61
2023/03/27 14:24:45;;;;;;;0.30;0.15;;;25.10;43.30;;;;;;4990332;28;45569;-63
2023/03/27 14:27:14;;;;;;;3.50;0.55;;;25.00;43.20;;;;;;4981690;28;45234;-61
2023/03/27 14:29:39;;;;;;;0.30;0.30;;;25.00;44.10;;;;;;4958749;28;45241;-61
2023/03/27 14:32:05;;;;;;;1.17;0.47;;;25.00;43.40;;;;;;4978088;28;47146;-61
2023/03/27 14:34:33;;;;;;;0.60;0.30;;;25.00;43.30;;;;;;4991131;28;44622;-62
2023/03/27 14:37:00;;;;;;;0.75;0.40;;;25.10;43.40;;;;;;4988426;28;44665;-60
2023/03/27 14:39:30;;;;;;;2.92;0.40;;;25.10;43.30;;;;;;4977529;28;44946;-61
2023/03/27 14:41:56;;;;;;;1.02;0.32;;;25.20;43.30;;;;;;4980874;28;46085;-60
2023/03/27 14:44:23;;;;;;;0.32;0.20;;;25.20;43.20;;;;;;4984329;28;45378;-61
2023/03/27 14:46:48;;;;;;;0.50;0.20;;;25.20;43.20;;;;;;4980610;28;45618;-61
2023/03/27 14:49:18;;;;;;;0.57;0.20;;;25.20;43.20;;;;;;4976549;28;46247;-60
2023/03/27 14:51:46;;;;;;;0.52;0.30;;;25.10;43.20;;;;;;4970308;28;45492;-63
2023/03/27 14:54:26;;;;;;;0.70;0.22;;;25.00;43.50;;;;;;4987345;28;45569;-61
2023/03/27 14:56:57;;;;;;;0.65;0.32;;;25.00;43.50;;;;;;4965891;28;44907;-60
2023/03/27 14:59:25;;;;;;;0.10;0.10;;;25.00;43.50;;;;;;4956941;28;45389;-59
2023/03/27 15:01:53;;;;;;;0.30;0.30;;;25.10;43.50;;;;;;4971593;28;45167;-61
2023/03/27 15:04:18;;;;;;;0.95;0.30;;;25.10;43.50;;;;;;4990908;28;45452;-61
2023/03/27 15:06:44;;;;;;;0.70;0.52;;;25.20;43.50;;;;;;4982351;28;45569;-59
2023/03/27 15:09:22;;;;;;;1.10;0.20;;;25.20;43.40;;;;;;4981220;28;45509;-62
2023/03/27 15:11:52;;;;;;;1.10;0.30;;;25.30;43.30;;;;;;4979672;28;46526;-60
2023/03/27 15:14:19;;;;;;;0.47;0.30;;;25.30;43.30;;;;;;4982529;28;44641;-60
2023/03/27 15:16:51;;;;;;;0.75;0.30;;;25.20;43.40;;;;;;4957397;28;45357;-60
2023/03/27 15:19:20;;;;;;;0.38;0.20;;;25.10;43.40;;;;;;4987637;28;45225;-58
2023/03/27 15:21:58;;;;;;;0.25;0.15;;;25.00;43.60;;;;;;4979409;28;46084;-59
2023/03/27 15:24:51;;;;;;;0.52;0.30;;;24.90;43.70;;;;;;4970657;28;45397;-61
2023/03/27 15:27:22;;;;;;;1.67;0.30;;;24.80;43.70;;;;;;4966800;28;45007;-60
2023/03/27 15:29:59;;;;;;;0.25;0.20;;;24.80;44.00;;;;;;4982561;28;45570;-60
2023/03/27 15:32:28;;;;;;;1.00;0.32;;;24.70;44.00;;;;;;4972748;28;46146;-60
2023/03/27 15:34:56;;;;;;;0.60;0.30;;;24.60;44.20;;;;;;4983677;28;45617;-60
2023/03/27 15:37:23;;;;;;;1.00;0.30;;;24.50;44.30;;;;;;4969605;28;45657;-58
2023/03/27 15:40:12;;;;;;;0.68;0.20;;;24.40;44.30;;;;;;4990206;28;45280;-58
2023/03/27 15:42:50;;;;;;;0.43;0.20;;;24.30;44.30;;;;;;4981760;28;45277;-60
2023/03/27 15:45:17;;;;;;;0.88;0.22;;;24.30;44.50;;;;;;4978899;28;45307;-60
2023/03/27 15:47:44;;;;;;;2.00;0.30;;;24.20;44.60;;;;;;4969515;28;45371;-60
2023/03/27 15:50:18;;;;;;;0.85;0.30;;;24.20;44.80;;;;;;4969145;28;45044;-62
2023/03/27 15:52:48;;;;;;;1.10;0.38;;;24.10;44.80;;;;;;4982719;28;46200;-59
2023/03/27 15:55:32;;;;;;;0.20;0.10;;;24.00;44.90;;;;;;4981089;28;45231;-64
2023/03/27 15:57:58;;;;;;;0.60;0.20;;;24.00;44.90;;;;;;4972889;28;44945;-59
2023/03/27 16:00:23;;;;;;;1.05;0.32;;;23.90;45.00;;;;;;4964059;28;46065;-59
2023/03/27 16:02:49;;;;;;;0.52;0.30;;;23.90;45.10;;;;;;4980252;28;46532;-57
2023/03/27 16:05:15;;;;;;;0.57;0.38;;;23.80;45.10;;;;;;4980103;28;45242;-59
2023/03/27 16:07:46;;;;;;;0.70;0.20;;;23.70;45.10;;;;;;4982581;28;45371;-58
2023/03/27 16:10:12;;;;;;;0.32;0.20;;;23.70;45.10;;;;;;4967034;28;44750;-58
2023/03/27 16:12:48;;;;;;;0.63;0.22;;;23.70;45.20;;;;;;4982062;28;45858;-60
2023/03/27 16:15:29;;;;;;;0.80;0.20;;;23.60;45.30;;;;;;4982222;28;45588;-62